ACA82B CYYC-CYVR
Flight info
| Callsign | ACA82B |
|---|---|
| Flight time | N/A |
| Altitude | 34000 |
| Route | BOTAG Q894 BOOTH CANUC6 |
| Aircraft | A320/M-SDE3FGHIRWY/LB1 |
Departure
| Time | 2026-04-30 21:24 |
|---|---|
| Airport | Calgary International Airport (CYYC) |
Arrival
| Time | N/A |
|---|---|
| Airport | Vancouver International Airport (CYVR) |
| Time | Latitude | Longitude | Altitude | Speed | Heading |
|---|---|---|---|---|---|
| 2026-04-30 21:20 | 51.13590 | -113.99304 | 3573 ft | 21 kts | 0° |
| 2026-04-30 21:20 | 51.13772 | -113.99304 | 3581 ft | 33 kts | 0° |
| 2026-04-30 21:20 | 51.14002 | -113.99300 | 3584 ft | 32 kts | 360° |
| 2026-04-30 21:20 | 51.14220 | -113.99300 | 3597 ft | 31 kts | 0° |
| 2026-04-30 21:21 | 51.14425 | -113.99299 | 3603 ft | 29 kts | 360° |
| 2026-04-30 21:21 | 51.14621 | -113.99299 | 3608 ft | 28 kts | 0° |
| 2026-04-30 21:21 | 51.14848 | -113.99216 | 3614 ft | 14 kts | 79° |
| 2026-04-30 21:22 | 51.14826 | -113.99040 | 3613 ft | 17 kts | 140° |
| 2026-04-30 21:22 | 51.14743 | -113.99030 | 3611 ft | 0 kts | 180° |
| 2026-04-30 21:23 | 51.14741 | -113.99031 | 3611 ft | 3 kts | 180° |
| 2026-04-30 21:23 | 51.14537 | -113.99031 | 3606 ft | 66 kts | 180° |
| 2026-04-30 21:23 | 51.12772 | -113.99033 | 3577 ft | 176 kts | 180° |
| 2026-04-30 21:24 | 51.11566 | -113.99028 | 4301 ft | 171 kts | 179° |
| 2026-04-30 21:24 | 51.10374 | -113.99026 | 5048 ft | 171 kts | 180° |
| 2026-04-30 21:24 | 51.09201 | -113.99388 | 5473 ft | 182 kts | 214° |
| 2026-04-30 21:24 | 51.08472 | -114.01091 | 5696 ft | 202 kts | 256° |
| 2026-04-30 21:25 | 51.08328 | -114.06088 | 6147 ft | 252 kts | 270° |
| 2026-04-30 21:25 | 51.08367 | -114.08993 | 6600 ft | 271 kts | 270° |
| 2026-04-30 21:25 | 51.08384 | -114.12017 | 7352 ft | 276 kts | 270° |
| 2026-04-30 21:26 | 51.08320 | -114.18161 | 9071 ft | 280 kts | 269° |
| 2026-04-30 21:26 | 51.08249 | -114.21271 | 9933 ft | 282 kts | 269° |
| 2026-04-30 21:27 | 51.08118 | -114.26102 | 10536 ft | 310 kts | 269° |